Hovedside
METAR-TAF:

METAR-TAF

Lufthavner :

Yap, Mikronesia

breddegrad: 09-29N, lengdegrad: 138-05E, høyde over havet: 28 m

Gjeldene værobservasjon

Denne rapporten ble laget for 1 time og 13 minutter siden, klokken 02:51 UTC
Vind 12 kt fra Øst-nordøst
Temperatur 33°C
Luftfuktighet 59%
Trykk 1013 hPa
Sikt: 19.3 km
Få skyer i en høyde av 1700 ft
Spredte skyer i en høyde av 30000 ft

METAR: PTYA 090251Z 06012KT 12SM FEW017 SCT300 33/24 A2991 RMK MDT CU W SLP130 8/201 T03250243 57003

Tid: 14:04 (04:04 UTC)

Varsel

Denne rapporten ble laget for 4 timer og 28 minutter siden, klokken 23:36 UTC
Varsel gyldig fra 09. klokken 00 UTC til 09. klokken 24 UTC
Vind 8 kt fra Øst-nordøst
Sikt: 10 km
Få skyer i en høyde av 1600 ft

TAF: PTYA 082336Z 0900/0924 06008KT P6SM FEW016

Værobservasjoner og værvarsel for over 4000 flyplasser (METAR- og TAF-rapporter).

Tilgjengelige stasjoner er representert av de røde og gule prikkene på kartet.

Hold musepekeren over prikken for å se navnet på stasjonen.

Klikk så for å se værobservasjoner og -varsler.

For å forandre kartet kan du klikke på den grønne knappen med svart kryss for å zoome inn, på den grønne knappen med strek for å zoome ut, eller på de grønne pilene for å se tilstøtende kart.


METAR-TAF: